createdAt,value
2022-09-15T00:01:21.622Z,94727.50
2022-09-15T00:03:47.971Z,94733.66
2022-09-15T00:06:14.304Z,94716.59
2022-09-15T00:08:40.621Z,94708.84
2022-09-15T00:11:06.944Z,94714.94
2022-09-15T00:13:33.279Z,94711.31
2022-09-15T00:15:59.587Z,94706.38
2022-09-15T00:18:25.898Z,94712.06
2022-09-15T00:20:52.227Z,94705.72
2022-09-15T00:23:18.546Z,94700.06
2022-09-15T00:25:44.865Z,94698.84
2022-09-15T00:28:11.193Z,94691.72
2022-09-15T00:30:37.539Z,94695.97
2022-09-15T00:33:03.929Z,94688.19
2022-09-15T00:35:30.233Z,94691.16
2022-09-15T00:37:56.564Z,94680.84
2022-09-15T00:40:22.920Z,94677.66
2022-09-15T00:42:49.417Z,94681.97
2022-09-15T00:45:15.796Z,94676.84
2022-09-15T00:47:42.110Z,94688.78
2022-09-15T00:50:08.451Z,94687.09
2022-09-15T00:52:34.780Z,94681.88
2022-09-15T00:55:01.121Z,94687.91
2022-09-15T00:57:27.454Z,94692.84
2022-09-15T00:59:53.768Z,94694.28
2022-09-15T01:02:20.052Z,94691.13
2022-09-15T01:04:46.414Z,94688.69
2022-09-15T01:07:12.754Z,94687.69
2022-09-15T01:09:39.095Z,94687.09
2022-09-15T01:12:05.414Z,94686.22
2022-09-15T01:14:31.722Z,94689.34
2022-09-15T01:16:58.056Z,94688.78
2022-09-15T01:19:24.355Z,94687.72
2022-09-15T01:21:50.638Z,94687.25
2022-09-15T01:24:16.911Z,94685.34
2022-09-15T01:26:43.176Z,94679.03
2022-09-15T01:29:09.447Z,94671.41
2022-09-15T01:31:35.783Z,94672.69
2022-09-15T01:34:02.070Z,94665.56
2022-09-15T01:36:28.400Z,94657.97
2022-09-15T01:38:54.813Z,94664.63
2022-09-15T01:41:21.162Z,94662.00
2022-09-15T01:43:47.469Z,94663.97
2022-09-15T01:46:13.929Z,94654.03
2022-09-15T01:48:40.305Z,94661.91
2022-09-15T01:51:06.634Z,94645.28
2022-09-15T01:53:32.983Z,94640.59
2022-09-15T01:55:59.362Z,94635.91
2022-09-15T01:58:25.671Z,94633.03
2022-09-15T02:00:52.018Z,94635.09
2022-09-15T02:03:18.425Z,94629.50
2022-09-15T02:05:44.728Z,94625.66
2022-09-15T02:08:11.054Z,94622.69
2022-09-15T02:10:37.393Z,94618.63
2022-09-15T02:13:03.724Z,94618.84
2022-09-15T02:15:30.067Z,94624.72
2022-09-15T02:17:56.388Z,94622.94
2022-09-15T02:20:22.727Z,94622.19
2022-09-15T02:22:49.063Z,94625.25
2022-09-15T02:25:15.397Z,94623.13
2022-09-15T02:27:41.710Z,94622.78
2022-09-15T02:30:08.116Z,94611.03
2022-09-15T02:32:34.475Z,94618.63
2022-09-15T02:35:00.814Z,94618.47
2022-09-15T02:37:27.135Z,94611.09
2022-09-15T02:39:53.489Z,94607.25
2022-09-15T02:42:19.830Z,94612.94
2022-09-15T02:44:46.173Z,94612.63
2022-09-15T02:47:12.501Z,94608.94
2022-09-15T02:49:38.814Z,94606.84
2022-09-15T02:52:05.130Z,94606.34
2022-09-15T02:54:31.450Z,94607.84
2022-09-15T02:56:57.758Z,94608.94
2022-09-15T02:59:24.079Z,94609.06
2022-09-15T03:01:50.442Z,94615.19
2022-09-15T03:04:16.808Z,94610.03
2022-09-15T03:06:43.131Z,94600.69
2022-09-15T03:09:09.457Z,94604.97
2022-09-15T03:11:35.795Z,94601.41
2022-09-15T03:14:02.125Z,94596.31
2022-09-15T03:16:28.568Z,94604.31
2022-09-15T03:18:55.002Z,94600.97
2022-09-15T03:21:21.324Z,94592.28
2022-09-15T03:23:47.645Z,94591.47
2022-09-15T03:26:13.990Z,94593.88
2022-09-15T03:28:40.414Z,94584.97
2022-09-15T03:31:06.781Z,94586.63
2022-09-15T03:33:33.124Z,94582.00
2022-09-15T03:35:59.429Z,94582.66
2022-09-15T03:38:25.750Z,94585.38
2022-09-15T03:40:52.074Z,94589.19
2022-09-15T03:43:18.868Z,94582.16
2022-09-15T03:45:45.284Z,94584.25
2022-09-15T03:48:11.678Z,94585.50
2022-09-15T03:50:37.995Z,94584.16
2022-09-15T03:53:04.318Z,94573.50
2022-09-15T03:55:30.645Z,94575.69
2022-09-15T03:57:56.955Z,94571.59
2022-09-15T04:00:23.275Z,94574.56
2022-09-15T04:02:49.610Z,94579.94
2022-09-15T04:05:15.927Z,94586.00
2022-09-15T04:07:42.234Z,94579.16
2022-09-15T04:10:08.550Z,94572.31
2022-09-15T04:12:34.880Z,94569.84
2022-09-15T04:15:01.220Z,94576.31
2022-09-15T04:17:27.547Z,94576.00
2022-09-15T04:19:53.883Z,94579.28
2022-09-15T04:22:20.203Z,94577.03
2022-09-15T04:24:46.552Z,94566.94
2022-09-15T04:27:12.879Z,94569.66
2022-09-15T04:29:39.207Z,94574.97
2022-09-15T04:32:05.660Z,94570.38
2022-09-15T04:34:31.982Z,94566.22
2022-09-15T04:36:58.306Z,94562.63
2022-09-15T04:39:24.633Z,94548.75
2022-09-15T04:41:50.965Z,94551.94
2022-09-15T04:44:17.295Z,94545.50
2022-09-15T04:46:43.689Z,94534.31
2022-09-15T04:49:10.032Z,94545.34
2022-09-15T04:51:36.350Z,94548.06
2022-09-15T04:54:02.696Z,94542.94
2022-09-15T04:56:29.026Z,94539.44
2022-09-15T04:58:59.492Z,94539.03
2022-09-15T05:01:28.997Z,94535.69
2022-09-15T05:03:55.389Z,94538.88
2022-09-15T05:06:21.722Z,94526.63
2022-09-15T05:08:48.053Z,94537.50
2022-09-15T05:11:14.382Z,94533.19
2022-09-15T05:13:40.713Z,94533.19
2022-09-15T05:16:07.080Z,94519.28
2022-09-15T05:18:34.529Z,94529.91
2022-09-15T05:21:00.843Z,94534.78
2022-09-15T05:23:27.167Z,94537.53
2022-09-15T05:25:53.487Z,94542.94
2022-09-15T05:28:19.817Z,94549.69
2022-09-15T05:30:46.143Z,94542.31
2022-09-15T05:33:12.473Z,94546.09
2022-09-15T05:35:38.790Z,94546.69
2022-09-15T05:38:05.127Z,94546.22
2022-09-15T05:40:31.725Z,94549.06
2022-09-15T05:42:58.257Z,94558.00
2022-09-15T05:45:24.562Z,94562.97
2022-09-15T05:47:50.900Z,94560.25
2022-09-15T05:50:17.214Z,94555.78
2022-09-15T05:52:43.528Z,94555.78
2022-09-15T05:55:09.843Z,94558.94
2022-09-15T05:57:36.162Z,94562.22
2022-09-15T06:00:02.484Z,94557.53
2022-09-15T06:02:28.841Z,94571.97
2022-09-15T06:04:55.187Z,94588.69
2022-09-15T06:07:21.532Z,94594.84
2022-09-15T06:09:47.855Z,94598.88
2022-09-15T06:12:14.173Z,94605.19
2022-09-15T06:14:40.490Z,94617.03
2022-09-15T06:17:06.822Z,94608.72
2022-09-15T06:19:33.149Z,94613.97
2022-09-15T06:21:59.490Z,94617.03
2022-09-15T06:24:25.815Z,94621.34
2022-09-15T06:26:52.137Z,94623.75
2022-09-15T06:29:18.466Z,94625.84
2022-09-15T06:31:44.805Z,94625.81
2022-09-15T06:34:11.102Z,94626.69
2022-09-15T06:36:37.431Z,94627.50
2022-09-15T06:39:03.755Z,94628.13
2022-09-15T06:41:47.143Z,94631.69
2022-09-15T06:44:16.374Z,94634.41
2022-09-15T06:46:42.734Z,94646.44
2022-09-15T06:49:09.066Z,94642.06
2022-09-15T06:51:35.384Z,94638.22
2022-09-15T06:54:01.704Z,94650.00
2022-09-15T06:56:28.043Z,94649.50
2022-09-15T06:58:54.448Z,94644.94
2022-09-15T07:01:20.783Z,94653.50
2022-09-15T07:03:47.121Z,94652.38
2022-09-15T07:06:13.497Z,94650.38
2022-09-15T07:08:39.830Z,94656.94
2022-09-15T07:11:06.148Z,94651.25
2022-09-15T07:13:32.658Z,94665.75
2022-09-15T07:15:59.062Z,94667.75
2022-09-15T07:18:25.407Z,94667.44
2022-09-15T07:20:51.714Z,94670.69
2022-09-15T07:23:18.032Z,94661.41
2022-09-15T07:25:44.347Z,94663.44
2022-09-15T07:28:10.687Z,94661.34
2022-09-15T07:30:37.037Z,94654.81
2022-09-15T07:33:03.363Z,94658.94
2022-09-15T07:35:29.699Z,94656.78
2022-09-15T07:37:56.009Z,94661.19
2022-09-15T07:40:22.383Z,94661.41
2022-09-15T07:42:48.764Z,94670.69
2022-09-15T07:45:15.075Z,94675.03
2022-09-15T07:47:41.396Z,94671.19
2022-09-15T07:50:07.740Z,94670.47
2022-09-15T07:52:34.049Z,94670.28
2022-09-15T07:55:00.367Z,94676.63
2022-09-15T07:57:26.686Z,94678.44
2022-09-15T07:59:53.005Z,94679.16
2022-09-15T08:02:19.421Z,94675.69
2022-09-15T08:04:45.823Z,94690.06
2022-09-15T08:07:12.154Z,94691.66
2022-09-15T08:09:38.475Z,94695.00
2022-09-15T08:12:04.806Z,94696.78
2022-09-15T08:14:31.123Z,94701.19
2022-09-15T08:16:57.509Z,94698.28
2022-09-15T08:19:24.010Z,94692.06
2022-09-15T08:21:50.328Z,94707.13
2022-09-15T08:24:16.645Z,94701.50
2022-09-15T08:26:42.975Z,94701.19
2022-09-15T08:29:09.280Z,94711.56
2022-09-15T08:31:35.646Z,94706.53
2022-09-15T08:34:01.997Z,94708.16
2022-09-15T08:36:28.476Z,94709.38
2022-09-15T08:38:54.827Z,94706.00
2022-09-15T08:41:21.163Z,94710.94
2022-09-15T08:43:47.473Z,94712.44
2022-09-15T08:46:13.831Z,94709.09
2022-09-15T08:48:40.161Z,94710.50
2022-09-15T08:51:06.479Z,94705.66
2022-09-15T08:53:32.796Z,94702.00
2022-09-15T08:55:59.188Z,94701.31
2022-09-15T08:58:25.495Z,94708.53
2022-09-15T09:00:51.819Z,94710.94
2022-09-15T09:03:18.134Z,94707.97
2022-09-15T09:05:44.465Z,94708.22
2022-09-15T09:08:10.778Z,94715.09
2022-09-15T09:10:37.102Z,94718.25
2022-09-15T09:13:03.414Z,94712.44
2022-09-15T09:15:29.781Z,94719.22
2022-09-15T09:17:56.141Z,94719.78
2022-09-15T09:20:22.453Z,94718.44
2022-09-15T09:22:48.791Z,94721.28
2022-09-15T09:25:26.610Z,94722.75
2022-09-15T09:27:53.853Z,94723.88
2022-09-15T09:30:20.185Z,94724.91
2022-09-15T09:32:46.510Z,94723.88
2022-09-15T09:35:12.848Z,94726.16
2022-09-15T09:37:39.149Z,94727.63
2022-09-15T09:40:05.542Z,94722.94
2022-09-15T09:42:31.867Z,94723.66
2022-09-15T09:44:58.178Z,94725.47
2022-09-15T09:47:24.500Z,94724.59
2022-09-15T09:49:50.840Z,94721.66
2022-09-15T09:52:21.902Z,94713.66
2022-09-15T09:54:48.352Z,94717.19
2022-09-15T09:57:14.662Z,94718.59
2022-09-15T09:59:41.060Z,94707.06
2022-09-15T10:02:07.390Z,94708.50
2022-09-15T10:04:33.761Z,94702.34
2022-09-15T10:07:00.142Z,94708.09
2022-09-15T10:09:31.192Z,94694.34
2022-09-15T10:11:59.507Z,94702.44
2022-09-15T10:14:25.823Z,94697.72
2022-09-15T10:16:52.245Z,94701.41
2022-09-15T10:19:18.631Z,94695.88
2022-09-15T10:21:44.971Z,94699.84
2022-09-15T10:24:12.751Z,94704.78
2022-09-15T10:26:39.151Z,94703.66
2022-09-15T10:29:05.451Z,94698.41
2022-09-15T10:31:31.817Z,94703.84
2022-09-15T10:33:58.206Z,94704.97
2022-09-15T10:36:24.538Z,94709.00
2022-09-15T10:38:50.964Z,94693.28
2022-09-15T10:41:17.372Z,94692.19
2022-09-15T10:43:43.711Z,94676.84
2022-09-15T10:46:10.085Z,94686.75
2022-09-15T10:48:36.435Z,94686.97
2022-09-15T10:51:02.760Z,94683.13
2022-09-15T10:53:29.106Z,94683.38
2022-09-15T10:55:55.423Z,94679.91
2022-09-15T10:58:21.758Z,94687.53
2022-09-15T11:00:48.105Z,94687.84
2022-09-15T11:03:14.434Z,94693.50
2022-09-15T11:05:40.769Z,94695.13
2022-09-15T11:08:07.113Z,94694.75
2022-09-15T11:10:33.430Z,94686.44
2022-09-15T11:12:59.779Z,94688.66
2022-09-15T11:15:26.102Z,94690.47
2022-09-15T11:17:52.404Z,94680.31
2022-09-15T11:20:18.797Z,94677.44
2022-09-15T11:22:49.413Z,94679.19
2022-09-15T11:25:16.090Z,94686.03
2022-09-15T11:27:42.420Z,94684.09
2022-09-15T11:30:08.803Z,94679.69
2022-09-15T11:32:35.157Z,94687.53
2022-09-15T11:35:01.503Z,94679.91
2022-09-15T11:37:27.846Z,94676.09
2022-09-15T11:39:54.203Z,94678.81
2022-09-15T11:42:20.545Z,94682.63
2022-09-15T11:44:46.880Z,94673.94
2022-09-15T11:47:13.207Z,94677.78
2022-09-15T11:49:39.513Z,94678.88
2022-09-15T11:52:05.817Z,94665.78
2022-09-15T11:54:32.136Z,94679.59
2022-09-15T11:56:58.462Z,94673.75
2022-09-15T11:59:24.767Z,94679.38
2022-09-15T12:01:51.182Z,94675.22
2022-09-15T12:04:17.522Z,94679.16
2022-09-15T12:06:45.961Z,94676.25
2022-09-15T12:09:12.518Z,94674.25
2022-09-15T12:11:38.843Z,94666.44
2022-09-15T12:14:05.188Z,94669.00
2022-09-15T12:16:31.549Z,94678.44
2022-09-15T12:18:57.856Z,94675.88
2022-09-15T12:21:24.412Z,94684.41
2022-09-15T12:23:50.871Z,94683.69
2022-09-15T12:26:17.251Z,94682.28
2022-09-15T12:28:43.555Z,94685.47
2022-09-15T12:31:09.928Z,94694.75
2022-09-15T12:33:36.302Z,94703.13
2022-09-15T12:36:02.609Z,94695.41
2022-09-15T12:38:28.919Z,94701.31
2022-09-15T12:40:55.248Z,94698.59
2022-09-15T12:43:21.591Z,94699.53
2022-09-15T12:45:47.918Z,94698.94
2022-09-15T12:48:14.259Z,94698.81
2022-09-15T12:50:40.576Z,94702.25
2022-09-15T12:53:06.881Z,94703.53
2022-09-15T12:55:33.208Z,94696.63
2022-09-15T12:57:59.533Z,94704.97
2022-09-15T13:00:25.846Z,94691.53
2022-09-15T13:02:52.245Z,94702.97
2022-09-15T13:05:18.697Z,94705.69
2022-09-15T13:07:45.006Z,94690.78
2022-09-15T13:10:11.332Z,94697.13
2022-09-15T13:12:37.652Z,94696.59
2022-09-15T13:15:03.980Z,94683.22
2022-09-15T13:17:30.310Z,94683.69
2022-09-15T13:19:56.623Z,94676.84
2022-09-15T13:22:22.998Z,94673.72
2022-09-15T13:24:49.353Z,94672.22
2022-09-15T13:27:15.683Z,94664.59
2022-09-15T13:29:42.013Z,94670.22
2022-09-15T13:32:08.439Z,94675.75
2022-09-15T13:40:07.427Z,94660.56
2022-09-15T13:42:33.755Z,94656.50
2022-09-15T13:45:00.095Z,94649.06
2022-09-15T13:47:26.430Z,94655.06
2022-09-15T13:49:52.750Z,94657.63
2022-09-15T13:52:19.062Z,94656.88
2022-09-15T13:54:45.374Z,94649.28
2022-09-15T13:57:11.708Z,94635.38
2022-09-15T13:59:38.015Z,94642.78
2022-09-15T14:02:04.462Z,94638.31
2022-09-15T14:04:30.883Z,94635.47
2022-09-15T14:07:00.171Z,94616.88
2022-09-15T14:09:27.775Z,94626.13
2022-09-15T14:11:54.100Z,94616.88
2022-09-15T14:14:20.405Z,94614.06
2022-09-15T14:16:46.790Z,94619.59
2022-09-15T14:19:13.231Z,94614.44
2022-09-15T14:21:39.569Z,94604.81
2022-09-15T14:24:05.902Z,94599.88
2022-09-15T14:26:32.244Z,94599.28
2022-09-15T14:28:58.589Z,94589.81
2022-09-15T14:31:24.982Z,94601.09
2022-09-15T14:33:51.487Z,94601.16
2022-09-15T14:36:17.839Z,94593.47
2022-09-15T14:38:44.205Z,94595.41
2022-09-15T14:41:10.571Z,94599.03
2022-09-15T14:43:36.889Z,94598.44
2022-09-15T14:46:08.163Z,94599.31
2022-09-15T14:48:35.348Z,94607.84
2022-09-15T14:51:01.678Z,94597.16
2022-09-15T14:53:28.020Z,94604.59
2022-09-15T14:55:54.355Z,94601.41
2022-09-15T14:58:20.675Z,94600.81
2022-09-15T15:00:47.027Z,94597.31
2022-09-15T15:03:14.878Z,94597.53
2022-09-15T15:05:43.968Z,94592.69
2022-09-15T15:08:10.300Z,94595.78
2022-09-15T15:10:36.632Z,94601.59
2022-09-15T15:13:02.961Z,94603.41
2022-09-15T15:15:29.318Z,94605.59
2022-09-15T15:17:55.648Z,94602.00
2022-09-15T15:20:21.981Z,94606.91
2022-09-15T15:22:48.311Z,94608.56
2022-09-15T15:25:14.635Z,94614.66
2022-09-15T15:27:40.951Z,94625.00
2022-09-15T15:30:07.273Z,94629.78
2022-09-15T15:32:33.663Z,94629.84
2022-09-15T15:35:00.007Z,94640.16
2022-09-15T15:37:26.338Z,94634.69
2022-09-15T15:39:52.690Z,94624.66
2022-09-15T15:42:19.033Z,94630.69
2022-09-15T15:44:45.343Z,94632.56
2022-09-15T15:47:11.649Z,94641.09
2022-09-15T15:49:46.167Z,94638.00
2022-09-15T15:52:22.479Z,94634.63
2022-09-15T15:54:48.805Z,94628.88
2022-09-15T15:57:15.209Z,94631.72
2022-09-15T15:59:41.555Z,94633.56
2022-09-15T16:02:07.913Z,94634.69
2022-09-15T16:04:34.270Z,94639.97
2022-09-15T16:07:00.586Z,94636.38
2022-09-15T16:09:26.918Z,94639.66
2022-09-15T16:11:53.306Z,94636.63
2022-09-15T16:14:19.635Z,94627.28
2022-09-15T16:16:46.011Z,94631.41
2022-09-15T16:19:12.425Z,94639.97
2022-09-15T16:21:38.766Z,94634.53
2022-09-15T16:24:05.085Z,94633.25
2022-09-15T16:26:31.452Z,94636.47
2022-09-15T16:28:57.772Z,94651.75
2022-09-15T16:31:24.149Z,94642.69
2022-09-15T16:33:50.528Z,94642.13
2022-09-15T16:36:16.829Z,94639.25
2022-09-15T16:38:43.219Z,94647.72
2022-09-15T16:41:09.650Z,94652.50
2022-09-15T16:43:35.972Z,94654.69
2022-09-15T16:46:02.364Z,94664.06
2022-09-15T16:48:28.684Z,94671.63
2022-09-15T16:51:17.156Z,94679.16
2022-09-15T16:53:41.294Z,94674.69
2022-09-15T16:56:07.626Z,94674.69
2022-09-15T16:58:33.968Z,94674.69
2022-09-15T17:01:00.353Z,94679.25
2022-09-15T17:03:26.758Z,94678.69
2022-09-15T17:05:53.067Z,94677.97
2022-09-15T17:08:19.441Z,94685.81
2022-09-15T17:10:45.770Z,94686.53
2022-09-15T17:13:12.070Z,94684.75
2022-09-15T17:15:38.411Z,94691.28
2022-09-15T17:18:04.777Z,94694.00
2022-09-15T17:20:33.752Z,94691.47
2022-09-15T17:23:02.187Z,94687.09
2022-09-15T17:25:28.503Z,94704.03
2022-09-15T17:27:54.809Z,94690.03
2022-09-15T17:30:21.137Z,94689.31
2022-09-15T17:32:47.458Z,94686.75
2022-09-15T17:35:13.771Z,94683.97
2022-09-15T17:37:40.102Z,94696.38
2022-09-15T17:40:06.440Z,94691.06
2022-09-15T17:42:32.860Z,94690.56
2022-09-15T17:44:59.184Z,94690.34
2022-09-15T17:47:25.496Z,94699.94
2022-09-15T17:49:51.828Z,94695.47
2022-09-15T17:52:18.175Z,94694.91
2022-09-15T17:54:44.517Z,94703.84
2022-09-15T17:57:10.834Z,94702.28
2022-09-15T17:59:37.160Z,94706.34
2022-09-15T18:02:03.527Z,94707.38
2022-09-15T18:04:29.884Z,94702.91
2022-09-15T18:06:56.243Z,94708.34
2022-09-15T18:09:22.613Z,94717.94
2022-09-15T18:11:48.962Z,94724.59
2022-09-15T18:14:15.378Z,94724.38
2022-09-15T18:16:41.704Z,94714.44
2022-09-15T18:19:08.029Z,94714.09
2022-09-15T18:21:34.360Z,94718.66
2022-09-15T18:24:00.685Z,94722.03
2022-09-15T18:26:27.101Z,94732.25
2022-09-15T18:28:53.525Z,94722.31
2022-09-15T18:31:19.957Z,94717.00
2022-09-15T18:33:46.319Z,94722.59
2022-09-15T18:36:12.629Z,94725.88
2022-09-15T18:38:38.934Z,94723.06
2022-09-15T18:41:05.620Z,94722.84
2022-09-15T18:43:32.141Z,94732.06
2022-09-15T18:45:58.654Z,94724.13
2022-09-15T18:48:25.007Z,94735.56
2022-09-15T18:50:51.345Z,94736.41
2022-09-15T18:53:17.695Z,94742.00
2022-09-15T18:55:43.997Z,94745.22
2022-09-15T18:58:10.304Z,94746.56
2022-09-15T19:00:36.632Z,94752.25
2022-09-15T19:03:02.978Z,94747.06
2022-09-15T19:05:29.278Z,94747.34
2022-09-15T19:07:55.816Z,94752.50
2022-09-15T19:10:22.126Z,94755.53
2022-09-15T19:12:48.454Z,94757.75
2022-09-15T19:15:14.956Z,94763.38
2022-09-15T19:17:41.297Z,94753.22
2022-09-15T19:20:07.723Z,94760.91
2022-09-15T19:22:34.054Z,94750.66
2022-09-15T19:25:00.458Z,94754.91
2022-09-15T19:27:26.973Z,94759.31
2022-09-15T19:29:53.343Z,94755.69
2022-09-15T19:32:19.669Z,94764.75
2022-09-15T19:34:45.993Z,94765.97
2022-09-15T19:37:15.286Z,94763.38
2022-09-15T19:39:44.760Z,94762.66
2022-09-15T19:42:11.145Z,94759.47
2022-09-15T19:44:37.695Z,94761.13
2022-09-15T19:47:04.035Z,94751.69
2022-09-15T19:49:30.350Z,94763.38
2022-09-15T19:51:56.758Z,94763.75
2022-09-15T19:54:23.316Z,94778.81
2022-09-15T19:56:49.799Z,94765.28
2022-09-15T19:59:16.185Z,94765.13
2022-09-15T20:01:42.550Z,94768.81
2022-09-15T20:06:52.562Z,94764.66
2022-09-15T20:09:18.993Z,94761.34
2022-09-15T20:11:45.406Z,94764.38
2022-09-15T20:14:11.777Z,94767.50
2022-09-15T20:16:38.165Z,94774.34
2022-09-15T20:19:04.974Z,94777.09
2022-09-15T20:21:50.238Z,94772.19
2022-09-15T20:24:17.303Z,94780.75
2022-09-15T20:26:43.759Z,94780.66
2022-09-15T20:29:10.102Z,94784.19
2022-09-15T20:31:36.413Z,94787.47
2022-09-15T20:34:02.795Z,94789.00
2022-09-15T20:36:29.151Z,94780.97
2022-09-15T20:38:55.505Z,94786.09
2022-09-15T20:41:21.888Z,94785.84
2022-09-15T20:43:48.215Z,94786.94
2022-09-15T20:46:14.628Z,94790.19
2022-09-15T20:48:41.016Z,94787.31
2022-09-15T20:51:07.337Z,94789.31
2022-09-15T20:53:33.784Z,94787.88
2022-09-15T20:56:00.100Z,94796.19
2022-09-15T20:58:26.432Z,94807.88
2022-09-15T21:00:52.817Z,94796.75
2022-09-15T21:03:19.171Z,94802.38
2022-09-15T21:05:45.499Z,94805.38
2022-09-15T21:08:11.841Z,94806.94
2022-09-15T21:10:38.161Z,94806.88
2022-09-15T21:13:04.473Z,94801.19
2022-09-15T21:15:30.806Z,94804.59
2022-09-15T21:17:57.148Z,94805.88
2022-09-15T21:20:23.484Z,94803.16
2022-09-15T21:22:49.801Z,94802.28
2022-09-15T21:25:16.141Z,94805.09
2022-09-15T21:27:42.457Z,94792.38
2022-09-15T21:30:08.759Z,94803.19
2022-09-15T21:32:35.079Z,94797.25
2022-09-15T21:35:01.404Z,94803.63
2022-09-15T21:37:27.725Z,94796.97
2022-09-15T21:39:54.130Z,94794.44
2022-09-15T21:42:20.523Z,94793.16
2022-09-15T21:44:46.912Z,94799.00
2022-09-15T21:47:13.264Z,94792.19
2022-09-15T21:49:39.602Z,94796.16
2022-09-15T21:52:05.919Z,94792.44
2022-09-15T21:54:32.248Z,94792.09
2022-09-15T21:56:58.565Z,94786.81
2022-09-15T21:59:24.885Z,94785.66
2022-09-15T22:01:51.230Z,94785.91
2022-09-15T22:04:17.571Z,94789.13
2022-09-15T22:06:43.908Z,94785.91
2022-09-15T22:09:10.225Z,94789.56
2022-09-15T22:11:36.566Z,94795.38
2022-09-15T22:14:02.911Z,94793.78
2022-09-15T22:16:29.369Z,94800.97
2022-09-15T22:18:55.728Z,94795.97
2022-09-15T22:21:22.061Z,94787.88
2022-09-15T22:23:48.402Z,94791.38
2022-09-15T22:26:14.758Z,94795.09
2022-09-15T22:28:41.080Z,94790.31
2022-09-15T22:31:07.442Z,94787.72
2022-09-15T22:33:33.869Z,94786.44
2022-09-15T22:36:00.211Z,94780.78
2022-09-15T22:38:26.551Z,94784.13
2022-09-15T22:40:52.872Z,94796.97
2022-09-15T22:43:19.191Z,94797.25
2022-09-15T22:45:45.551Z,94785.22
2022-09-15T22:48:11.933Z,94791.44
2022-09-15T22:50:38.249Z,94784.22
2022-09-15T22:53:04.623Z,94781.31
2022-09-15T22:55:30.948Z,94790.06
2022-09-15T22:57:57.280Z,94784.00
2022-09-15T23:00:23.615Z,94793.78
2022-09-15T23:02:49.953Z,94785.75
2022-09-15T23:05:16.313Z,94782.63
2022-09-15T23:07:42.681Z,94784.38
2022-09-15T23:10:09.015Z,94778.06
2022-09-15T23:12:35.345Z,94780.59
2022-09-15T23:15:01.766Z,94781.16
2022-09-15T23:17:28.126Z,94777.69
2022-09-15T23:19:54.463Z,94774.13
2022-09-15T23:22:20.795Z,94766.88
2022-09-15T23:24:47.126Z,94775.16
2022-09-15T23:27:13.450Z,94769.16
2022-09-15T23:29:39.787Z,94771.16
2022-09-15T23:32:06.137Z,94762.16
2022-09-15T23:34:32.451Z,94765.09
2022-09-15T23:36:58.785Z,94765.72
2022-09-15T23:39:25.111Z,94763.06
2022-09-15T23:41:51.440Z,94766.81
2022-09-15T23:44:17.777Z,94756.94
2022-09-15T23:46:44.122Z,94760.50
2022-09-15T23:49:10.507Z,94757.13
2022-09-15T23:51:36.847Z,94763.22
2022-09-15T23:54:03.173Z,94761.44
2022-09-15T23:56:29.540Z,94763.06
2022-09-15T23:58:55.919Z,94762.13
